Time;durP1;ratioP1;P1;durP2;ratioP2;P2;SDS_P1;SDS_P2;PMS_P1;PMS_P2;Temp;Humidity;BMP_temperature;BMP_pressure;BME280_temperature;BME280_humidity;BME280_pressure;Samples;Min_cycle;Max_cycle;Signal;HPM_P1;HPM_P2
2022/07/06 00:00:17;;;;;;;4.25;2.53;;;25.70;67.80;;;;;;6113833;28;80795;-65
2022/07/06 00:03:18;;;;;;;2.78;2.50;;;25.70;67.90;;;;;;6107946;28;80608;-65
2022/07/06 00:06:18;;;;;;;9.95;3.00;;;25.70;68.00;;;;;;6108352;28;81861;-66
2022/07/06 00:09:19;;;;;;;4.00;2.78;;;25.70;68.00;;;;;;6113466;28;80046;-65
2022/07/06 00:12:19;;;;;;;2.63;2.25;;;25.70;67.70;;;;;;6105088;28;80805;-66
2022/07/06 00:15:19;;;;;;;2.38;2.10;;;25.70;67.60;;;;;;6110368;28;83929;-64
2022/07/06 00:18:20;;;;;;;3.05;2.75;;;25.70;67.40;;;;;;6101906;28;82850;-65
2022/07/06 00:21:20;;;;;;;2.88;2.58;;;25.70;67.60;;;;;;6109563;28;80483;-65
2022/07/06 00:24:21;;;;;;;4.18;2.55;;;25.70;67.40;;;;;;6108605;28;81748;-65
2022/07/06 00:27:21;;;;;;;3.58;2.90;;;25.70;67.40;;;;;;6105342;28;80387;-65
2022/07/06 00:30:22;;;;;;;2.97;2.40;;;25.70;67.40;;;;;;6103999;28;80365;-66
2022/07/06 00:33:22;;;;;;;3.88;2.30;;;25.70;67.40;;;;;;6107660;28;80960;-65
2022/07/06 00:36:23;;;;;;;5.75;2.67;;;25.70;67.30;;;;;;6100419;28;80385;-65
2022/07/06 00:39:28;;;;;;;2.78;2.53;;;25.70;67.30;;;;;;6121885;28;83358;-65
2022/07/06 00:42:29;;;;;;;2.60;2.17;;;25.70;67.30;;;;;;6109919;28;84749;-65
2022/07/06 00:45:29;;;;;;;3.20;2.60;;;25.70;67.30;;;;;;6121848;28;80784;-65
2022/07/06 00:48:30;;;;;;;2.40;2.20;;;25.70;67.30;;;;;;6114198;28;81393;-65
2022/07/06 00:51:31;;;;;;;4.45;2.10;;;25.80;67.60;;;;;;6111279;28;83136;-64
2022/07/06 00:54:31;;;;;;;3.63;2.50;;;25.80;67.30;;;;;;6126724;28;80380;-65
2022/07/06 00:57:32;;;;;;;3.00;2.40;;;25.80;67.40;;;;;;6110865;28;81640;-64
2022/07/06 01:00:32;;;;;;;2.63;2.42;;;25.80;67.40;;;;;;6111029;28;83711;-65
2022/07/06 01:03:33;;;;;;;4.68;2.40;;;25.80;67.60;;;;;;6110748;28;81902;-64
2022/07/06 01:06:33;;;;;;;3.30;2.65;;;25.80;67.60;;;;;;6110958;28;83088;-65
2022/07/06 01:09:34;;;;;;;2.70;2.00;;;25.70;67.40;;;;;;6111785;28;81118;-65
2022/07/06 01:12:34;;;;;;;3.03;2.33;;;25.80;67.50;;;;;;6110549;28;83139;-66
2022/07/06 01:15:35;;;;;;;1.95;1.75;;;25.70;67.50;;;;;;6097850;28;83371;-66
2022/07/06 01:18:35;;;;;;;2.42;2.20;;;25.70;67.50;;;;;;6103291;28;80274;-66
2022/07/06 01:21:36;;;;;;;5.40;2.25;;;25.70;67.50;;;;;;6108045;28;82032;-65
2022/07/06 01:24:36;;;;;;;2.30;2.00;;;25.70;66.90;;;;;;6109071;28;82501;-68
2022/07/06 01:27:40;;;;;;;1.95;1.85;;;25.70;66.80;;;;;;6118489;28;80275;-65
2022/07/06 01:30:40;;;;;;;2.75;2.15;;;25.70;66.90;;;;;;6110686;28;83537;-65
2022/07/06 01:33:41;;;;;;;2.17;2.03;;;25.70;66.80;;;;;;6122097;28;80693;-65
2022/07/06 01:36:41;;;;;;;2.88;2.30;;;25.70;66.70;;;;;;6111187;28;80935;-66
2022/07/06 01:39:42;;;;;;;2.08;1.85;;;25.70;66.80;;;;;;6112078;28;80933;-65
2022/07/06 01:42:42;;;;;;;2.30;2.10;;;25.70;67.00;;;;;;6109434;28;82955;-65
2022/07/06 01:45:43;;;;;;;2.22;2.03;;;25.70;66.90;;;;;;6111704;28;82085;-65
2022/07/06 01:48:43;;;;;;;3.42;1.92;;;25.70;66.80;;;;;;6108562;28;80209;-65
2022/07/06 01:51:44;;;;;;;2.20;2.00;;;25.70;66.90;;;;;;6106568;28;80105;-65
2022/07/06 01:54:44;;;;;;;2.33;1.95;;;25.70;66.90;;;;;;6102106;28;83371;-64
2022/07/06 01:57:45;;;;;;;2.22;2.03;;;25.70;66.80;;;;;;6103926;28;81554;-64
2022/07/06 02:00:46;;;;;;;2.00;1.80;;;25.70;67.00;;;;;;6098808;28;83018;-65
2022/07/06 02:03:47;;;;;;;2.17;1.90;;;25.70;67.00;;;;;;6106672;28;83232;-65
2022/07/06 02:06:48;;;;;;;1.85;1.75;;;25.70;66.90;;;;;;6098415;28;82164;-65
2022/07/06 02:09:49;;;;;;;2.92;2.15;;;25.70;66.80;;;;;;6105378;28;82197;-65
2022/07/06 02:12:49;;;;;;;1.92;1.83;;;25.70;66.90;;;;;;6096916;28;83452;-65
2022/07/06 02:15:50;;;;;;;1.80;1.70;;;25.70;66.90;;;;;;6102391;28;82855;-65
2022/07/06 02:18:50;;;;;;;2.55;2.35;;;25.70;66.90;;;;;;6106604;28;80392;-65
2022/07/06 02:21:51;;;;;;;2.38;1.90;;;25.70;67.00;;;;;;6106465;28;83572;-65
2022/07/06 02:24:51;;;;;;;2.50;2.30;;;25.70;67.00;;;;;;6109818;28;82169;-65
2022/07/06 02:27:53;;;;;;;1.98;1.85;;;25.70;67.10;;;;;;6114927;28;82729;-65
2022/07/06 02:30:54;;;;;;;2.60;2.17;;;25.70;67.20;;;;;;6109521;28;83559;-65
2022/07/06 02:33:55;;;;;;;5.35;2.33;;;25.70;67.10;;;;;;6109255;28;83592;-66
2022/07/06 02:36:56;;;;;;;2.67;2.20;;;25.70;67.00;;;;;;6111206;28;81389;-66
2022/07/06 02:39:57;;;;;;;4.35;2.30;;;25.70;66.90;;;;;;6109850;28;83336;-65
2022/07/06 02:42:57;;;;;;;2.80;2.60;;;25.70;67.00;;;;;;6117913;28;82080;-64
2022/07/06 02:45:58;;;;;;;3.08;2.50;;;25.70;66.90;;;;;;6109696;28;81685;-64
2022/07/06 02:49:00;;;;;;;3.03;2.30;;;25.70;66.90;;;;;;6112188;28;83221;-65
2022/07/06 02:52:01;;;;;;;2.15;1.95;;;25.70;67.00;;;;;;6115529;28;83134;-64
2022/07/06 02:55:03;;;;;;;4.88;2.53;;;25.70;67.20;;;;;;6109964;28;82078;-64
2022/07/06 02:58:04;;;;;;;2.38;2.10;;;25.70;67.00;;;;;;6113044;28;83146;-65
2022/07/06 03:01:05;;;;;;;5.15;2.60;;;25.70;67.00;;;;;;6107874;28;83084;-65
2022/07/06 03:04:08;;;;;;;3.83;2.83;;;25.70;66.90;;;;;;6110921;28;81853;-65
2022/07/06 03:07:08;;;;;;;3.92;2.75;;;25.70;67.00;;;;;;6119705;28;83119;-65
2022/07/06 03:10:09;;;;;;;3.03;2.50;;;25.70;67.00;;;;;;6109484;28;83395;-66
2022/07/06 03:13:11;;;;;;;4.40;2.15;;;25.70;66.90;;;;;;6107415;28;83082;-64
2022/07/06 03:16:11;;;;;;;3.42;2.25;;;25.70;67.00;;;;;;6107172;28;83135;-64
2022/07/06 03:19:12;;;;;;;2.65;2.45;;;25.70;66.90;;;;;;6109460;28;81992;-64
2022/07/06 03:22:13;;;;;;;3.05;2.75;;;25.60;66.90;;;;;;6105820;28;80426;-64
2022/07/06 03:25:13;;;;;;;3.63;2.60;;;25.60;66.60;;;;;;6121240;28;83423;-65
2022/07/06 03:28:15;;;;;;;2.88;2.45;;;25.70;66.60;;;;;;6106875;28;83395;-65
2022/07/06 03:31:15;;;;;;;3.70;2.70;;;25.60;66.50;;;;;;6121529;28;80391;-64
2022/07/06 03:34:16;;;;;;;3.67;2.58;;;25.60;66.40;;;;;;6112840;28;83545;-65
2022/07/06 03:37:17;;;;;;;4.38;3.28;;;25.70;66.30;;;;;;6110264;28;83160;-64
2022/07/06 03:40:17;;;;;;;5.13;2.53;;;25.60;66.40;;;;;;6111989;28;80723;-64
2022/07/06 03:43:20;;;;;;;3.10;2.72;;;25.60;66.20;;;;;;6109972;28;81785;-66
2022/07/06 03:46:21;;;;;;;5.13;2.83;;;25.60;66.00;;;;;;6094647;28;81699;-64
2022/07/06 03:49:22;;;;;;;3.20;2.63;;;25.60;65.70;;;;;;6103857;28;80357;-64
2022/07/06 03:52:23;;;;;;;2.97;2.40;;;25.60;65.60;;;;;;6104938;28;83146;-65
2022/07/06 03:55:28;;;;;;;2.53;2.33;;;25.60;65.90;;;;;;6112411;28;83207;-64
2022/07/06 03:58:33;;;;;;;3.60;2.88;;;25.60;65.80;;;;;;6111096;28;82486;-63
2022/07/06 04:01:33;;;;;;;4.40;2.65;;;25.60;65.80;;;;;;6108464;28;81756;-65
2022/07/06 04:04:34;;;;;;;2.60;2.30;;;25.50;65.40;;;;;;6109131;28;82220;-64
2022/07/06 04:07:35;;;;;;;3.30;2.47;;;25.60;65.40;;;;;;6097315;28;82409;-66
2022/07/06 04:10:36;;;;;;;5.20;2.40;;;25.60;65.70;;;;;;6108984;28;83393;-66
2022/07/06 04:13:38;;;;;;;2.47;2.28;;;25.70;65.70;;;;;;6107334;28;82723;-66
2022/07/06 04:16:39;;;;;;;3.28;2.42;;;25.70;65.90;;;;;;6109173;28;83109;-66
2022/07/06 04:19:41;;;;;;;6.32;3.03;;;25.80;65.80;;;;;;6108686;28;82982;-65
2022/07/06 04:22:41;;;;;;;7.95;2.83;;;25.80;65.90;;;;;;6104296;28;80385;-64
2022/07/06 04:25:42;;;;;;;5.47;2.45;;;25.90;66.20;;;;;;6111610;28;83589;-63
2022/07/06 04:28:42;;;;;;;4.95;2.40;;;25.90;66.30;;;;;;6103890;28;82924;-65
2022/07/06 04:31:43;;;;;;;2.95;2.70;;;25.90;66.60;;;;;;6111768;28;83353;-67
2022/07/06 04:34:44;;;;;;;3.58;2.83;;;26.00;66.30;;;;;;6111875;28;83141;-67
2022/07/06 04:37:45;;;;;;;4.22;2.80;;;25.90;66.80;;;;;;6110749;28;82991;-67
2022/07/06 04:40:47;;;;;;;7.25;3.03;;;26.00;66.30;;;;;;6111848;28;83166;-65
2022/07/06 04:43:51;;;;;;;7.20;3.42;;;26.00;66.40;;;;;;6094684;28;83173;-67
2022/07/06 04:46:52;;;;;;;4.88;3.42;;;26.00;66.30;;;;;;6111156;28;83239;-67
2022/07/06 04:49:53;;;;;;;5.63;2.92;;;26.00;66.50;;;;;;6105820;28;81990;-64
2022/07/06 04:52:53;;;;;;;5.72;3.80;;;26.00;66.10;;;;;;6111646;28;81800;-65
2022/07/06 04:55:55;;;;;;;6.88;3.08;;;26.00;66.50;;;;;;6111072;28;81936;-64
2022/07/06 04:58:56;;;;;;;6.15;3.53;;;26.00;66.80;;;;;;6110659;28;82550;-63
2022/07/06 05:01:56;;;;;;;6.97;3.28;;;26.00;66.80;;;;;;6105305;28;83075;-67
2022/07/06 05:04:57;;;;;;;5.25;3.03;;;26.00;66.50;;;;;;6099449;28;83100;-72
2022/07/06 05:07:58;;;;;;;3.63;3.00;;;26.00;66.30;;;;;;6104746;28;83918;-67
2022/07/06 05:10:59;;;;;;;7.65;3.17;;;26.00;66.30;;;;;;6109040;28;82885;-65
2022/07/06 05:14:00;;;;;;;5.93;2.90;;;26.00;66.60;;;;;;6107930;28;82716;-68
2022/07/06 05:17:00;;;;;;;6.05;3.00;;;26.10;66.50;;;;;;6104867;28;80606;-70
2022/07/06 05:20:01;;;;;;;6.43;3.42;;;26.10;66.30;;;;;;6098334;28;82708;-62
2022/07/06 05:23:05;;;;;;;6.43;3.05;;;26.10;66.30;;;;;;6081595;28;82420;-63
2022/07/06 05:26:07;;;;;;;9.20;3.55;;;26.10;66.30;;;;;;6118935;28;81650;-62
2022/07/06 05:29:08;;;;;;;5.80;2.83;;;26.10;66.00;;;;;;6110735;28;83471;-61
2022/07/06 05:32:09;;;;;;;5.47;3.00;;;26.10;66.00;;;;;;6108953;28;82812;-62
2022/07/06 05:35:09;;;;;;;7.55;2.92;;;26.10;65.90;;;;;;6111609;28;83072;-62
2022/07/06 05:38:10;;;;;;;11.68;3.35;;;26.10;65.80;;;;;;6114222;28;82952;-62
2022/07/06 05:41:11;;;;;;;9.93;3.13;;;26.10;65.70;;;;;;6110443;28;81860;-64
2022/07/06 05:44:12;;;;;;;4.47;3.08;;;26.10;65.40;;;;;;6109805;28;82499;-65
2022/07/06 05:50:33;;;;;;;7.75;2.83;;;26.10;64.40;;;;;;6108141;28;83555;-65
2022/07/06 05:53:33;;;;;;;3.67;2.97;;;26.10;63.40;;;;;;6106417;28;80384;-63
2022/07/06 05:56:34;;;;;;;3.00;2.70;;;26.00;63.00;;;;;;6104217;28;83277;-63
2022/07/06 05:59:36;;;;;;;3.83;2.83;;;26.00;62.00;;;;;;6104585;28;82777;-63
2022/07/06 06:02:36;;;;;;;4.25;2.65;;;25.90;61.40;;;;;;6104510;28;82026;-66
2022/07/06 06:05:37;;;;;;;4.97;3.67;;;25.90;61.10;;;;;;6106881;28;83415;-64
2022/07/06 06:08:40;;;;;;;8.25;3.58;;;25.70;61.30;;;;;;6109624;28;82174;-64
2022/07/06 06:11:41;;;;;;;5.90;3.15;;;25.70;60.80;;;;;;6101600;28;83076;-64
2022/07/06 06:14:42;;;;;;;3.88;2.97;;;25.70;60.60;;;;;;6112386;28;83326;-65
2022/07/06 06:17:42;;;;;;;5.25;2.78;;;25.70;60.40;;;;;;6113872;28;83751;-63
2022/07/06 06:20:43;;;;;;;6.72;3.40;;;25.60;60.20;;;;;;6114728;28;80400;-64
2022/07/06 06:23:44;;;;;;;7.22;3.53;;;25.60;60.10;;;;;;6117615;28;81926;-64
2022/07/06 06:26:44;;;;;;;4.53;2.97;;;25.60;60.10;;;;;;6119034;28;81486;-63
2022/07/06 06:29:45;;;;;;;5.43;3.00;;;25.60;60.10;;;;;;6120094;28;80634;-64
2022/07/06 06:32:45;;;;;;;5.72;3.05;;;25.60;60.20;;;;;;6121535;28;81833;-64
2022/07/06 06:35:46;;;;;;;5.90;2.75;;;25.60;60.40;;;;;;6110683;28;80489;-65
2022/07/06 06:38:47;;;;;;;3.58;3.05;;;25.60;60.40;;;;;;6111556;28;80451;-64
2022/07/06 06:41:48;;;;;;;4.10;2.92;;;25.70;60.80;;;;;;6101995;28;81404;-64
2022/07/06 06:44:48;;;;;;;7.03;3.60;;;25.70;60.80;;;;;;6103912;28;80900;-63
2022/07/06 06:47:49;;;;;;;3.75;3.20;;;25.70;61.20;;;;;;6110213;28;80301;-64
2022/07/06 06:50:49;;;;;;;11.63;2.95;;;25.70;61.20;;;;;;6112590;28;81454;-64
2022/07/06 06:53:50;;;;;;;4.47;3.28;;;25.70;60.90;;;;;;6106667;28;81593;-62
2022/07/06 06:56:50;;;;;;;11.13;3.60;;;25.70;60.80;;;;;;6110859;28;81960;-65
2022/07/06 06:59:51;;;;;;;6.63;3.40;;;25.70;60.90;;;;;;6095250;28;80989;-64
2022/07/06 07:02:51;;;;;;;7.82;3.17;;;25.70;60.80;;;;;;6095844;28;80460;-65
2022/07/06 07:05:52;;;;;;;6.13;3.00;;;25.70;60.40;;;;;;6096324;28;81466;-66
2022/07/06 07:08:52;;;;;;;2.90;2.60;;;25.70;60.50;;;;;;6096104;28;81648;-64
2022/07/06 07:11:54;;;;;;;8.73;2.80;;;25.70;60.30;;;;;;6101503;28;80238;-64
2022/07/06 07:14:55;;;;;;;4.68;2.90;;;25.70;60.30;;;;;;6099513;28;87203;-65
2022/07/06 07:17:55;;;;;;;5.53;2.58;;;25.70;60.20;;;;;;6097482;28;85182;-65
2022/07/06 07:20:56;;;;;;;7.32;2.92;;;25.70;60.60;;;;;;6104567;28;80539;-65
2022/07/06 07:23:56;;;;;;;5.57;2.97;;;25.80;60.30;;;;;;6107175;28;80558;-66
2022/07/06 07:26:57;;;;;;;3.83;2.63;;;25.80;59.80;;;;;;6104695;28;80238;-64
2022/07/06 07:29:57;;;;;;;14.77;3.38;;;25.80;59.40;;;;;;6106818;28;81113;-65
2022/07/06 07:33:00;;;;;;;4.80;2.72;;;25.80;59.30;;;;;;6108782;28;80413;-64
2022/07/06 07:36:00;;;;;;;7.47;2.55;;;25.80;59.00;;;;;;6106273;28;80801;-66
2022/07/06 07:39:01;;;;;;;4.68;3.10;;;25.80;59.90;;;;;;6120617;28;80662;-71
2022/07/06 07:42:01;;;;;;;4.22;2.88;;;25.70;59.30;;;;;;6110825;28;80420;-66
2022/07/06 07:45:02;;;;;;;13.27;3.10;;;25.80;59.50;;;;;;6102183;28;81564;-82
2022/07/06 07:48:02;;;;;;;8.18;3.10;;;25.80;59.60;;;;;;6116340;28;80363;-75
2022/07/06 07:51:03;;;;;;;3.42;3.05;;;25.70;60.00;;;;;;6114297;28;81593;-71
2022/07/06 07:54:03;;;;;;;7.55;3.05;;;25.80;60.20;;;;;;6114352;28;81048;-70
2022/07/06 07:57:03;;;;;;;5.55;3.72;;;25.80;60.00;;;;;;6114591;28;80688;-68
2022/07/06 08:00:04;;;;;;;5.40;2.85;;;25.80;59.60;;;;;;6114752;28;80697;-68
2022/07/06 08:03:11;;;;;;;4.18;2.72;;;25.90;59.20;;;;;;6106965;28;80165;-69
2022/07/06 08:06:12;;;;;;;5.65;2.67;;;25.90;59.50;;;;;;6114261;28;81505;-69
2022/07/06 08:09:13;;;;;;;5.22;2.30;;;25.90;59.30;;;;;;6107500;28;80649;-69
2022/07/06 08:12:13;;;;;;;4.50;2.58;;;25.80;58.90;;;;;;6116442;28;80418;-70
2022/07/06 08:15:13;;;;;;;4.88;2.17;;;25.80;59.50;;;;;;6113926;28;80331;-66
2022/07/06 08:18:14;;;;;;;4.07;2.50;;;25.90;59.20;;;;;;6106046;28;80502;-67
2022/07/06 08:21:14;;;;;;;11.80;2.80;;;25.90;59.30;;;;;;6099016;28;80473;-67
2022/07/06 08:24:15;;;;;;;9.85;3.30;;;25.90;58.60;;;;;;6104035;28;80125;-68
2022/07/06 08:27:16;;;;;;;5.07;2.50;;;26.00;58.70;;;;;;6101825;28;80460;-68
2022/07/06 08:30:16;;;;;;;24.88;3.30;;;25.90;58.30;;;;;;6112356;28;82045;-71
2022/07/06 08:33:17;;;;;;;6.20;2.80;;;26.00;58.60;;;;;;6104030;28;80940;-71
2022/07/06 08:36:17;;;;;;;9.57;3.10;;;26.00;58.20;;;;;;6103867;28;80246;-70
2022/07/06 08:39:18;;;;;;;3.88;2.58;;;26.00;58.40;;;;;;6113088;28;80429;-72
2022/07/06 08:42:18;;;;;;;3.70;2.53;;;26.00;58.00;;;;;;6108501;28;81196;-70
2022/07/06 08:45:19;;;;;;;3.15;2.58;;;25.90;58.00;;;;;;6105396;28;80167;-70
2022/07/06 08:48:19;;;;;;;2.90;2.65;;;25.90;58.10;;;;;;6104869;28;80304;-71
2022/07/06 08:51:20;;;;;;;6.47;2.70;;;25.90;57.80;;;;;;6105836;28;80185;-71
2022/07/06 08:54:21;;;;;;;9.43;4.15;;;25.90;58.00;;;;;;6103818;28;80338;-69
2022/07/06 08:57:21;;;;;;;8.38;3.25;;;25.90;58.60;;;;;;6108220;28;80741;-74
2022/07/06 09:00:22;;;;;;;2.72;2.33;;;25.80;59.00;;;;;;6109112;28;80449;-67
2022/07/06 09:03:22;;;;;;;9.07;5.20;;;25.80;59.20;;;;;;6111464;28;80665;-67
2022/07/06 09:06:22;;;;;;;9.10;4.43;;;25.60;59.80;;;;;;6112230;28;80317;-66
2022/07/06 09:09:23;;;;;;;9.23;4.68;;;25.70;60.10;;;;;;6112748;28;80300;-65
2022/07/06 09:12:23;;;;;;;8.57;5.45;;;25.70;60.10;;;;;;6113042;28;80318;-66
2022/07/06 09:15:24;;;;;;;8.40;5.32;;;25.80;60.30;;;;;;6110933;28;80326;-64
2022/07/06 09:18:24;;;;;;;12.50;6.40;;;25.70;60.50;;;;;;6109843;28;80557;-63
2022/07/06 09:21:25;;;;;;;14.43;8.02;;;25.80;61.50;;;;;;6112448;28;80393;-65
2022/07/06 09:24:26;;;;;;;12.43;8.00;;;25.70;62.20;;;;;;6115327;28;80563;-67
2022/07/06 09:27:26;;;;;;;15.20;8.68;;;25.70;62.50;;;;;;6112509;28;80548;-65
2022/07/06 09:30:27;;;;;;;13.13;10.25;;;25.70;62.60;;;;;;6114121;28;80762;-65
2022/07/06 09:33:27;;;;;;;14.00;10.50;;;25.70;62.20;;;;;;6107206;28;83265;-65
2022/07/06 09:36:28;;;;;;;14.82;10.98;;;25.60;61.60;;;;;;6100033;28;83500;-65
2022/07/06 09:39:28;;;;;;;13.63;9.18;;;25.50;61.20;;;;;;6108436;28;83493;-65
2022/07/06 09:42:29;;;;;;;18.42;10.90;;;25.60;61.40;;;;;;6111429;28;83000;-63
2022/07/06 09:45:29;;;;;;;16.92;10.75;;;25.60;61.90;;;;;;6099719;28;83057;-66
2022/07/06 09:48:30;;;;;;;14.70;9.32;;;25.60;62.20;;;;;;6102205;28;83750;-65
2022/07/06 09:51:30;;;;;;;11.82;9.07;;;25.70;61.70;;;;;;6110721;28;83114;-70
2022/07/06 09:54:31;;;;;;;13.20;7.82;;;25.70;61.50;;;;;;6111745;28;81737;-69
2022/07/06 09:57:31;;;;;;;16.48;9.32;;;25.70;60.90;;;;;;6112063;28;80475;-66
2022/07/06 10:00:32;;;;;;;13.65;8.27;;;25.80;60.90;;;;;;6110517;28;80254;-66
2022/07/06 10:03:32;;;;;;;12.65;7.95;;;25.90;60.80;;;;;;6115152;28;80407;-67
2022/07/06 10:06:33;;;;;;;12.15;8.52;;;25.90;60.80;;;;;;6110487;28;81166;-65
2022/07/06 10:09:33;;;;;;;15.27;9.05;;;25.90;60.20;;;;;;6102921;28;80824;-65
2022/07/06 10:12:36;;;;;;;12.43;7.55;;;25.90;60.60;;;;;;6096817;28;85616;-67
2022/07/06 10:15:37;;;;;;;10.35;7.22;;;25.90;60.10;;;;;;6103724;28;80621;-69
2022/07/06 10:18:37;;;;;;;11.57;6.40;;;25.80;60.60;;;;;;6107814;28;81385;-69
2022/07/06 10:21:38;;;;;;;15.20;7.07;;;25.80;58.10;;;;;;6101256;28;80638;-68
2022/07/06 10:24:43;;;;;;;11.63;5.47;;;25.80;57.70;;;;;;6102218;28;80433;-68
2022/07/06 10:27:43;;;;;;;11.73;5.07;;;25.80;57.60;;;;;;6108786;28;80293;-68
2022/07/06 10:30:44;;;;;;;7.18;5.70;;;25.70;57.60;;;;;;6101197;28;81550;-70
2022/07/06 10:33:44;;;;;;;9.60;5.10;;;25.70;57.60;;;;;;6110706;28;80350;-70
2022/07/06 10:36:45;;;;;;;5.68;4.60;;;25.80;57.10;;;;;;6102489;28;80468;-70
2022/07/06 10:43:04;;;;;;;9.90;4.85;;;25.70;57.20;;;;;;6094945;28;80365;-68
2022/07/06 10:46:05;;;;;;;7.38;4.95;;;25.80;57.00;;;;;;6106596;28;80516;-66
2022/07/06 10:49:05;;;;;;;12.88;4.72;;;25.90;56.80;;;;;;6109484;28;80791;-65
2022/07/06 10:52:06;;;;;;;5.90;4.30;;;25.90;56.00;;;;;;6116071;28;81527;-66
2022/07/06 10:55:06;;;;;;;4.93;4.18;;;25.90;55.80;;;;;;6111719;28;85012;-65
2022/07/06 10:58:07;;;;;;;6.95;4.20;;;25.90;56.60;;;;;;6112659;28;81757;-66
2022/07/06 11:01:07;;;;;;;10.35;4.13;;;25.90;55.80;;;;;;6115189;28;80532;-66
2022/07/06 11:04:08;;;;;;;5.00;3.92;;;25.90;55.40;;;;;;6106740;28;80686;-67
2022/07/06 11:07:09;;;;;;;8.82;4.03;;;25.90;55.20;;;;;;6110147;28;80716;-66
2022/07/06 11:10:10;;;;;;;7.47;3.58;;;25.90;55.50;;;;;;6112552;28;80172;-66
2022/07/06 11:13:10;;;;;;;6.25;4.38;;;26.00;55.50;;;;;;6116065;28;80806;-65
2022/07/06 11:16:11;;;;;;;9.00;5.18;;;26.00;54.80;;;;;;6112508;28;80191;-67
2022/07/06 11:19:11;;;;;;;12.48;4.53;;;26.00;54.60;;;;;;6108168;28;81006;-66
2022/07/06 11:22:12;;;;;;;4.82;4.05;;;25.90;53.90;;;;;;6122698;28;80489;-64
2022/07/06 11:25:12;;;;;;;6.68;3.40;;;25.90;54.40;;;;;;6118529;28;80961;-65
2022/07/06 11:28:14;;;;;;;5.70;3.78;;;25.90;54.20;;;;;;6115075;28;81138;-67
2022/07/06 11:31:14;;;;;;;4.35;3.42;;;26.00;54.60;;;;;;6107667;28;80558;-66
2022/07/06 11:34:15;;;;;;;8.60;3.75;;;26.00;55.10;;;;;;6111568;28;80998;-66
2022/07/06 11:37:17;;;;;;;6.05;3.58;;;26.10;55.20;;;;;;6108036;28;80379;-66
2022/07/06 11:40:17;;;;;;;4.20;3.28;;;26.10;55.00;;;;;;6112187;28;81017;-66
2022/07/06 11:43:18;;;;;;;8.55;3.50;;;26.00;55.00;;;;;;6111401;28;80573;-67
2022/07/06 11:46:18;;;;;;;7.65;3.20;;;26.00;55.40;;;;;;6108123;28;82019;-67
2022/07/06 11:49:19;;;;;;;6.03;3.53;;;26.00;55.70;;;;;;6097372;28;80526;-67
2022/07/06 11:52:19;;;;;;;3.20;2.90;;;26.10;55.60;;;;;;6109534;28;80621;-65
2022/07/06 11:55:20;;;;;;;5.43;3.40;;;26.00;55.50;;;;;;6112880;28;80626;-71
2022/07/06 11:58:21;;;;;;;4.13;3.72;;;25.80;55.50;;;;;;6113810;28;80352;-65
2022/07/06 12:01:23;;;;;;;13.80;3.83;;;25.70;56.20;;;;;;6104509;28;80722;-66
2022/07/06 12:04:23;;;;;;;3.42;3.13;;;25.80;57.00;;;;;;6106502;28;80548;-70
2022/07/06 12:07:24;;;;;;;4.07;3.67;;;25.90;57.70;;;;;;6099995;28;80534;-70
2022/07/06 12:10:24;;;;;;;5.40;3.72;;;25.80;58.80;;;;;;6099044;28;80496;-68
2022/07/06 12:13:25;;;;;;;6.68;4.32;;;25.80;59.60;;;;;;6100847;28;80636;-69
2022/07/06 12:16:25;;;;;;;6.90;3.45;;;25.80;59.60;;;;;;6105609;28;80555;-67
2022/07/06 12:19:25;;;;;;;12.23;3.55;;;25.80;59.30;;;;;;6112237;28;80487;-68
2022/07/06 12:22:27;;;;;;;4.25;3.28;;;25.80;59.00;;;;;;6098834;28;80630;-70
2022/07/06 12:25:28;;;;;;;5.97;3.10;;;25.80;58.90;;;;;;6102897;28;81491;-69
2022/07/06 12:28:28;;;;;;;7.18;3.85;;;25.80;58.70;;;;;;6105305;28;80547;-67
2022/07/06 12:31:28;;;;;;;8.57;4.47;;;25.80;58.30;;;;;;6103518;28;81496;-68
2022/07/06 12:34:34;;;;;;;5.93;2.88;;;25.90;57.80;;;;;;6103253;28;80324;-68
2022/07/06 12:37:34;;;;;;;3.92;3.22;;;25.90;57.10;;;;;;6111150;28;80809;-68
2022/07/06 12:40:35;;;;;;;6.00;2.47;;;26.00;56.30;;;;;;6107980;28;82207;-68
2022/07/06 12:43:35;;;;;;;2.50;2.28;;;26.00;55.70;;;;;;6097500;28;80593;-68
2022/07/06 12:46:36;;;;;;;3.55;1.98;;;26.00;55.60;;;;;;6097272;28;81544;-69
2022/07/06 12:49:36;;;;;;;3.90;2.13;;;26.10;55.90;;;;;;6098445;28;80411;-69
2022/07/06 12:52:37;;;;;;;3.58;2.20;;;26.10;55.40;;;;;;6108463;28;80837;-67
2022/07/06 12:55:37;;;;;;;2.97;2.25;;;26.10;55.60;;;;;;6108336;28;80539;-67
2022/07/06 12:58:38;;;;;;;2.72;2.10;;;26.10;55.20;;;;;;6107282;28;81474;-70
2022/07/06 13:01:38;;;;;;;2.13;1.92;;;26.10;54.70;;;;;;6104300;28;80481;-70
2022/07/06 13:04:39;;;;;;;5.38;2.15;;;26.10;54.70;;;;;;6105668;28;80763;-71
2022/07/06 13:07:39;;;;;;;5.18;2.10;;;26.10;54.40;;;;;;6103353;28;80959;-70
2022/07/06 13:10:42;;;;;;;4.45;2.08;;;26.00;53.20;;;;;;6101965;28;80442;-70
2022/07/06 13:13:43;;;;;;;2.47;1.70;;;26.00;52.90;;;;;;6101069;28;80420;-69
2022/07/06 13:16:43;;;;;;;2.40;2.13;;;26.00;52.90;;;;;;6100209;28;80404;-65
2022/07/06 13:19:44;;;;;;;1.95;1.75;;;26.10;53.20;;;;;;6108920;28;80503;-63
2022/07/06 13:22:45;;;;;;;2.65;1.50;;;26.00;52.80;;;;;;6111696;28;80184;-65
2022/07/06 13:25:46;;;;;;;3.15;1.83;;;26.00;51.60;;;;;;6111963;28;80688;-64
2022/07/06 13:28:46;;;;;;;5.40;1.98;;;25.90;51.30;;;;;;6111954;28;81109;-64
2022/07/06 13:31:47;;;;;;;1.77;1.67;;;25.90;51.40;;;;;;6111905;28;80440;-64
2022/07/06 13:34:47;;;;;;;1.60;1.50;;;25.90;51.70;;;;;;6111835;28;80592;-64
2022/07/06 13:37:49;;;;;;;2.40;1.90;;;25.90;51.60;;;;;;6104459;28;80495;-65
2022/07/06 13:40:49;;;;;;;5.97;2.20;;;25.90;51.50;;;;;;6113687;28;80957;-64
2022/07/06 13:43:50;;;;;;;2.42;1.95;;;25.90;51.90;;;;;;6117960;28;80197;-66
2022/07/06 13:46:50;;;;;;;4.78;1.95;;;26.00;52.50;;;;;;6115567;28;80720;-64
2022/07/06 13:49:51;;;;;;;3.90;2.00;;;26.00;52.20;;;;;;6111876;28;80486;-64
2022/07/06 13:52:51;;;;;;;4.22;2.10;;;25.90;52.10;;;;;;6109772;28;81692;-66
2022/07/06 13:55:52;;;;;;;4.85;2.15;;;25.90;51.80;;;;;;6098801;28;81318;-65
2022/07/06 13:58:52;;;;;;;4.10;1.67;;;25.90;50.70;;;;;;6109326;28;85517;-64
2022/07/06 14:01:53;;;;;;;3.83;1.52;;;25.90;50.60;;;;;;6091250;28;80831;-65
2022/07/06 14:04:53;;;;;;;3.70;1.50;;;25.90;50.50;;;;;;6108298;28;80390;-65
2022/07/06 14:07:54;;;;;;;3.28;1.80;;;25.90;50.60;;;;;;6095230;28;80115;-66
2022/07/06 14:10:54;;;;;;;3.00;2.28;;;25.90;50.40;;;;;;6097235;28;80430;-65
2022/07/06 14:13:55;;;;;;;2.97;1.92;;;25.90;50.60;;;;;;6106258;28;81046;-64
2022/07/06 14:16:55;;;;;;;4.40;1.90;;;25.90;50.50;;;;;;6094100;28;81257;-65
2022/07/06 14:19:56;;;;;;;5.05;2.25;;;25.90;50.40;;;;;;6099758;28;80906;-66
2022/07/06 14:22:56;;;;;;;2.42;2.00;;;25.90;50.30;;;;;;6096234;28;80737;-65
2022/07/06 14:25:57;;;;;;;4.90;1.80;;;25.90;50.80;;;;;;6099934;28;80133;-65
2022/07/06 14:28:57;;;;;;;3.72;2.50;;;25.90;50.30;;;;;;6101409;28;80669;-66
2022/07/06 14:31:58;;;;;;;3.97;2.30;;;25.80;51.10;;;;;;6103851;28;84598;-65
2022/07/06 14:34:58;;;;;;;2.63;2.42;;;25.80;52.30;;;;;;6099583;28;81801;-64
2022/07/06 14:37:59;;;;;;;6.55;2.58;;;25.80;52.80;;;;;;6108093;28;81746;-66
2022/07/06 14:40:59;;;;;;;5.80;2.78;;;25.90;53.20;;;;;;6105585;28;81167;-65
2022/07/06 14:43:59;;;;;;;7.40;2.75;;;25.90;53.30;;;;;;6099730;28;81054;-66
2022/07/06 14:47:00;;;;;;;6.72;2.47;;;25.90;53.40;;;;;;6109625;28;80537;-63
2022/07/06 14:50:00;;;;;;;6.25;2.13;;;25.80;53.10;;;;;;6112284;28;80871;-62
2022/07/06 14:53:01;;;;;;;5.38;2.42;;;25.70;53.00;;;;;;6109448;28;80657;-64
2022/07/06 14:56:01;;;;;;;5.75;2.33;;;25.70;53.60;;;;;;6110915;28;80509;-63
2022/07/06 14:59:02;;;;;;;5.32;2.45;;;25.70;54.00;;;;;;6113956;28;80339;-65
2022/07/06 15:02:02;;;;;;;4.82;2.33;;;25.80;54.30;;;;;;6109532;28;80944;-66
2022/07/06 15:05:03;;;;;;;5.47;2.28;;;25.80;54.60;;;;;;6112599;28;82012;-65
2022/07/06 15:08:03;;;;;;;4.95;2.70;;;25.90;54.80;;;;;;6112103;28;80743;-64
2022/07/06 15:11:04;;;;;;;5.70;2.67;;;25.90;55.40;;;;;;6110228;28;80113;-65
2022/07/06 15:14:04;;;;;;;7.03;2.95;;;26.00;55.20;;;;;;6108439;28;80250;-65
2022/07/06 15:17:05;;;;;;;4.18;2.53;;;26.00;55.50;;;;;;6110653;28;80707;-64
2022/07/06 15:20:05;;;;;;;3.35;1.98;;;26.10;55.30;;;;;;6093805;28;81705;-64
2022/07/06 15:23:06;;;;;;;3.42;1.88;;;26.00;55.00;;;;;;6106153;28;80406;-65
2022/07/06 15:26:06;;;;;;;2.08;1.77;;;26.00;54.60;;;;;;6107375;28;80658;-65
2022/07/06 15:29:07;;;;;;;2.25;1.50;;;26.00;55.10;;;;;;6111037;28;81397;-64
2022/07/06 15:32:07;;;;;;;2.20;1.80;;;26.00;55.30;;;;;;6106626;28;81634;-68
2022/07/06 15:35:08;;;;;;;2.13;1.90;;;26.00;55.70;;;;;;6109395;28;80978;-68
2022/07/06 15:38:08;;;;;;;2.03;1.77;;;26.00;55.90;;;;;;6104144;28;80528;-68
2022/07/06 15:41:09;;;;;;;2.55;1.80;;;26.00;56.00;;;;;;6105166;28;80772;-68
2022/07/06 15:44:09;;;;;;;2.35;2.15;;;26.10;56.30;;;;;;6099629;28;80648;-68